createdAt,value
2023-05-07T00:02:08.368Z,2.70
2023-05-07T00:05:10.276Z,3.13
2023-05-07T00:08:12.141Z,6.10
2023-05-07T00:11:13.573Z,9.03
2023-05-07T00:14:15.000Z,2.80
2023-05-07T00:17:16.373Z,4.77
2023-05-07T00:20:17.808Z,4.07
2023-05-07T00:23:19.322Z,5.03
2023-05-07T00:26:21.515Z,2.50
2023-05-07T00:29:25.022Z,3.27
2023-05-07T00:32:26.543Z,5.77
2023-05-07T00:35:31.944Z,5.93
2023-05-07T00:38:33.364Z,4.70
2023-05-07T00:41:34.810Z,3.03
2023-05-07T00:44:36.415Z,3.00
2023-05-07T00:47:37.946Z,2.47
2023-05-07T00:50:39.755Z,2.77
2023-05-07T00:53:41.313Z,3.50
2023-05-07T00:56:42.950Z,2.47
2023-05-07T00:59:44.395Z,2.97
2023-05-07T01:02:45.919Z,3.63
2023-05-07T01:05:49.915Z,3.10
2023-05-07T01:08:53.789Z,3.83
2023-05-07T01:11:58.190Z,2.87
2023-05-07T01:14:59.766Z,3.53
2023-05-07T01:18:02.005Z,2.80
2023-05-07T01:21:11.714Z,2.70
2023-05-07T01:24:13.409Z,4.50
2023-05-07T01:27:14.854Z,3.20
2023-05-07T01:30:17.782Z,7.83
2023-05-07T01:33:23.353Z,3.23
2023-05-07T01:36:28.081Z,2.40
2023-05-07T01:39:30.919Z,4.63
2023-05-07T01:42:32.770Z,2.97
2023-05-07T01:45:35.364Z,2.30
2023-05-07T01:48:37.546Z,2.63
2023-05-07T01:51:39.852Z,2.80
2023-05-07T01:54:41.261Z,4.60
2023-05-07T01:57:42.698Z,3.50
2023-05-07T02:00:44.155Z,3.30
2023-05-07T02:03:45.866Z,4.20
2023-05-07T02:06:54.992Z,3.67
2023-05-07T02:09:56.551Z,3.73
2023-05-07T02:12:57.982Z,2.13
2023-05-07T02:15:59.540Z,2.00
2023-05-07T02:19:02.456Z,2.63
2023-05-07T02:22:03.870Z,3.80
2023-05-07T02:25:05.977Z,5.00
2023-05-07T02:28:07.434Z,2.57
2023-05-07T02:31:24.547Z,3.17
2023-05-07T02:34:26.007Z,3.00
2023-05-07T02:37:27.703Z,3.90
2023-05-07T02:40:29.463Z,2.50
2023-05-07T02:43:30.908Z,7.20
2023-05-07T02:46:32.579Z,5.87
2023-05-07T02:49:42.038Z,4.43
2023-05-07T02:52:44.056Z,6.57
2023-05-07T02:55:45.505Z,4.10
2023-05-07T02:58:46.914Z,3.13
2023-05-07T03:01:50.148Z,2.57
2023-05-07T03:04:52.688Z,4.03
2023-05-07T03:07:54.078Z,4.03
2023-05-07T03:10:55.583Z,4.90
2023-05-07T03:13:57.057Z,2.60
2023-05-07T03:16:58.534Z,3.40
2023-05-07T03:20:00.200Z,4.00
2023-05-07T03:23:01.871Z,3.33
2023-05-07T03:26:03.474Z,3.97
2023-05-07T03:29:05.223Z,4.37
2023-05-07T03:32:06.893Z,2.77
2023-05-07T03:35:08.845Z,3.60
2023-05-07T03:38:10.314Z,3.00
2023-05-07T03:41:13.593Z,2.53
2023-05-07T03:44:15.076Z,3.90
2023-05-07T03:47:17.038Z,3.70
2023-05-07T03:50:19.357Z,4.70
2023-05-07T03:53:20.849Z,4.07
2023-05-07T03:56:22.440Z,5.43
2023-05-07T03:59:28.972Z,6.03
2023-05-07T04:02:31.582Z,4.37
2023-05-07T04:05:33.562Z,3.80
2023-05-07T04:08:37.643Z,5.30
2023-05-07T04:11:43.515Z,3.87
2023-05-07T04:14:46.251Z,5.57
2023-05-07T04:17:48.266Z,5.63
2023-05-07T04:20:52.202Z,4.80
2023-05-07T04:23:53.833Z,5.27
2023-05-07T04:26:55.996Z,5.43
2023-05-07T04:29:58.078Z,7.13
2023-05-07T04:33:00.319Z,5.10
2023-05-07T04:36:05.252Z,5.90
2023-05-07T04:39:11.808Z,4.33
2023-05-07T04:42:17.849Z,5.03
2023-05-07T04:45:19.816Z,6.47
2023-05-07T04:48:22.816Z,5.73
2023-05-07T04:51:26.300Z,5.80
2023-05-07T04:54:28.538Z,6.53
2023-05-07T04:57:30.015Z,5.00
2023-05-07T05:00:31.707Z,5.90
2023-05-07T05:03:34.792Z,5.37
2023-05-07T05:06:37.096Z,4.47
2023-05-07T05:09:39.766Z,6.67
2023-05-07T05:12:41.486Z,4.90
2023-05-07T05:15:43.436Z,3.60
2023-05-07T05:18:45.434Z,3.27
2023-05-07T05:21:49.348Z,2.90
2023-05-07T05:24:50.934Z,11.63
2023-05-07T05:27:52.722Z,6.07
2023-05-07T05:30:54.455Z,4.47
2023-05-07T05:33:59.201Z,5.03
2023-05-07T05:37:00.811Z,5.93
2023-05-07T05:40:02.290Z,2.77
2023-05-07T05:43:05.549Z,1.77
2023-05-07T05:46:09.228Z,1.70
2023-05-07T05:49:10.749Z,2.20
2023-05-07T05:52:15.022Z,2.83
2023-05-07T05:55:16.491Z,6.03
2023-05-07T05:58:18.056Z,2.00
2023-05-07T06:01:26.451Z,4.77
2023-05-07T06:04:30.075Z,3.73
2023-05-07T06:07:32.288Z,3.57
2023-05-07T06:10:33.878Z,3.17
2023-05-07T06:13:35.772Z,2.50
2023-05-07T06:16:38.930Z,3.40
2023-05-07T06:19:42.335Z,2.27
2023-05-07T06:22:44.887Z,2.67
2023-05-07T06:25:53.546Z,4.07
2023-05-07T06:28:59.422Z,5.17
2023-05-07T06:32:11.922Z,3.97
2023-05-07T06:35:15.218Z,4.43
2023-05-07T06:38:16.737Z,2.20
2023-05-07T06:41:19.836Z,5.60
2023-05-07T06:44:21.426Z,2.90
2023-05-07T06:47:33.670Z,4.63
2023-05-07T06:50:35.165Z,2.23
2023-05-07T06:53:36.781Z,2.43
2023-05-07T06:56:39.377Z,4.87
2023-05-07T06:59:40.993Z,3.77
2023-05-07T07:02:43.104Z,1.70
2023-05-07T07:05:45.758Z,3.00
2023-05-07T07:08:48.204Z,2.60
2023-05-07T07:11:51.884Z,2.00
2023-05-07T07:14:55.059Z,2.47
2023-05-07T07:17:57.663Z,3.60
2023-05-07T07:21:00.110Z,2.77
2023-05-07T07:24:02.261Z,2.70
2023-05-07T07:27:03.742Z,2.40
2023-05-07T07:30:07.057Z,4.87
2023-05-07T07:33:11.423Z,2.80
2023-05-07T07:36:13.863Z,3.60
2023-05-07T07:39:16.761Z,2.60
2023-05-07T07:42:19.732Z,2.30
2023-05-07T07:45:21.624Z,2.53
2023-05-07T07:48:25.374Z,3.10
2023-05-07T07:51:27.639Z,3.03
2023-05-07T07:54:30.196Z,2.40
2023-05-07T07:57:32.041Z,2.83
2023-05-07T08:00:34.001Z,4.10
2023-05-07T08:03:36.502Z,2.30
2023-05-07T08:06:38.579Z,2.33
2023-05-07T08:09:41.803Z,3.77
2023-05-07T08:12:45.131Z,2.30
2023-05-07T08:15:46.613Z,4.13
2023-05-07T08:18:49.540Z,2.50
2023-05-07T08:21:51.580Z,4.47
2023-05-07T08:24:54.593Z,4.97
2023-05-07T08:27:56.203Z,4.17
2023-05-07T08:31:00.788Z,2.00
2023-05-07T08:34:04.560Z,2.07
2023-05-07T08:37:06.168Z,3.17
2023-05-07T08:40:10.728Z,2.20
2023-05-07T08:43:15.812Z,2.93
2023-05-07T08:46:23.069Z,2.43
2023-05-07T08:49:29.567Z,3.60
2023-05-07T08:52:32.147Z,3.23
2023-05-07T08:55:34.190Z,4.23
2023-05-07T08:58:36.720Z,3.00
2023-05-07T09:01:39.498Z,3.03
2023-05-07T09:04:41.550Z,2.63
2023-05-07T09:07:43.491Z,3.27
2023-05-07T09:10:45.843Z,3.90
2023-05-07T09:13:47.486Z,3.13
2023-05-07T09:16:49.147Z,3.00
2023-05-07T09:19:50.934Z,2.57
2023-05-07T09:22:52.599Z,2.90
2023-05-07T09:26:01.088Z,2.93
2023-05-07T09:29:05.161Z,2.73
2023-05-07T09:32:07.783Z,2.50
2023-05-07T09:35:16.904Z,5.33
2023-05-07T09:38:22.090Z,2.50
2023-05-07T09:41:27.259Z,2.67
2023-05-07T09:44:37.216Z,4.13
2023-05-07T09:47:45.625Z,4.07
2023-05-07T09:50:52.516Z,3.37
2023-05-07T09:54:00.845Z,3.17
2023-05-07T09:57:04.406Z,2.33
2023-05-07T10:00:08.141Z,2.50
2023-05-07T10:03:24.811Z,2.23
2023-05-07T10:06:32.421Z,3.37
2023-05-07T10:09:39.335Z,3.57
2023-05-07T10:12:42.772Z,4.13
2023-05-07T10:15:51.929Z,2.27
2023-05-07T10:18:55.435Z,2.90
2023-05-07T10:22:05.766Z,2.43
2023-05-07T10:25:19.017Z,3.20
2023-05-07T10:28:22.943Z,3.93
2023-05-07T10:31:31.309Z,4.38
2023-05-07T10:34:40.310Z,2.22
2023-05-07T10:37:42.896Z,2.20
2023-05-07T10:40:47.774Z,2.00
2023-05-07T10:43:51.968Z,2.30
2023-05-07T10:47:13.179Z,2.00
2023-05-07T10:50:18.152Z,2.63
2023-05-07T10:53:19.692Z,2.22
2023-05-07T10:56:40.151Z,2.30
2023-05-07T10:59:46.695Z,2.35
2023-05-07T11:03:00.297Z,2.78
2023-05-07T11:06:16.288Z,3.85
2023-05-07T11:10:02.452Z,3.38
2023-05-07T11:13:45.194Z,2.20
2023-05-07T11:17:03.383Z,2.20
2023-05-07T11:20:06.737Z,2.40
2023-05-07T11:23:39.200Z,4.95
2023-05-07T11:27:03.771Z,3.25
2023-05-07T11:30:06.952Z,3.05
2023-05-07T11:33:09.653Z,2.13
2023-05-07T11:36:13.282Z,3.03
2023-05-07T11:39:34.116Z,3.13
2023-05-07T11:42:40.831Z,1.88
2023-05-07T11:45:42.310Z,1.75
2023-05-07T11:48:44.713Z,2.28
2023-05-07T11:51:47.551Z,2.10
2023-05-07T11:54:53.530Z,2.60
2023-05-07T11:57:54.925Z,3.28
2023-05-07T12:00:56.373Z,3.08
2023-05-07T12:03:57.826Z,2.53
2023-05-07T12:06:59.345Z,2.55
2023-05-07T12:10:04.846Z,4.85
2023-05-07T12:13:25.040Z,2.63
2023-05-07T12:16:27.485Z,3.47
2023-05-07T12:19:30.284Z,2.55
2023-05-07T12:22:31.829Z,3.80
2023-05-07T12:25:35.885Z,3.63
2023-05-07T12:28:39.514Z,2.33
2023-05-07T12:31:44.542Z,2.65
2023-05-07T12:34:47.002Z,2.20
2023-05-07T12:37:56.814Z,3.72
2023-05-07T12:40:58.227Z,2.33
2023-05-07T12:43:59.899Z,2.40
2023-05-07T12:47:04.866Z,3.38
2023-05-07T12:50:08.132Z,4.65
2023-05-07T12:53:12.085Z,2.53
2023-05-07T12:56:16.850Z,3.53
2023-05-07T12:59:18.298Z,3.92
2023-05-07T13:02:19.717Z,2.25
2023-05-07T13:05:21.188Z,3.65
2023-05-07T13:08:37.276Z,3.20
2023-05-07T13:11:38.710Z,1.77
2023-05-07T13:14:41.407Z,2.22
2023-05-07T13:17:42.924Z,2.00
2023-05-07T13:20:44.447Z,3.90
2023-05-07T13:23:46.037Z,3.35
2023-05-07T13:26:47.429Z,2.03
2023-05-07T13:29:48.839Z,2.90
2023-05-07T13:32:50.862Z,3.17
2023-05-07T13:35:52.367Z,2.83
2023-05-07T13:38:53.849Z,4.25
2023-05-07T13:41:55.327Z,1.80
2023-05-07T13:44:57.572Z,2.58
2023-05-07T13:47:59.198Z,4.38
2023-05-07T13:51:00.631Z,2.78
2023-05-07T13:54:02.258Z,2.58
2023-05-07T13:57:03.709Z,2.38
2023-05-07T14:00:06.053Z,2.22
2023-05-07T14:03:16.502Z,3.78
2023-05-07T14:06:18.225Z,2.92
2023-05-07T14:09:19.665Z,4.10
2023-05-07T14:12:21.065Z,9.48
2023-05-07T14:15:23.065Z,3.57
2023-05-07T14:18:25.732Z,4.67
2023-05-07T14:21:27.183Z,3.93
2023-05-07T14:24:38.238Z,7.17
2023-05-07T14:27:40.209Z,6.07
2023-05-07T14:30:41.687Z,7.23
2023-05-07T14:33:43.073Z,4.60
2023-05-07T14:36:45.029Z,4.53
2023-05-07T14:39:49.762Z,6.23
2023-05-07T14:42:51.577Z,7.40
2023-05-07T14:45:53.118Z,3.93
2023-05-07T14:48:54.645Z,4.20
2023-05-07T14:52:00.292Z,3.47
2023-05-07T14:55:01.669Z,3.83
2023-05-07T14:58:03.090Z,5.23
2023-05-07T15:01:04.576Z,3.57
2023-05-07T15:04:06.248Z,2.30
2023-05-07T15:07:08.032Z,5.33
2023-05-07T15:10:09.673Z,7.07
2023-05-07T15:13:15.642Z,4.43
2023-05-07T15:16:17.787Z,5.67
2023-05-07T15:19:19.216Z,5.27
2023-05-07T15:22:22.409Z,5.13
2023-05-07T15:25:24.281Z,3.37
2023-05-07T15:28:26.042Z,3.70
2023-05-07T15:31:30.822Z,6.23
2023-05-07T15:34:32.279Z,7.10
2023-05-07T15:37:34.864Z,4.90
2023-05-07T15:40:38.593Z,4.20
2023-05-07T15:43:49.078Z,7.43
2023-05-07T15:46:50.630Z,4.33
2023-05-07T15:49:52.014Z,3.40
2023-05-07T15:52:53.541Z,4.30
2023-05-07T15:55:55.243Z,3.60
2023-05-07T15:58:57.540Z,4.47
2023-05-07T16:01:58.959Z,3.23
2023-05-07T16:05:00.985Z,4.73
2023-05-07T16:08:02.816Z,4.10
2023-05-07T16:11:04.336Z,4.57
2023-05-07T16:14:06.256Z,3.50
2023-05-07T16:17:08.630Z,2.80
2023-05-07T16:20:12.856Z,4.40
2023-05-07T16:23:15.173Z,4.53
2023-05-07T16:26:18.251Z,3.40
2023-05-07T16:29:22.199Z,2.30
2023-05-07T16:32:25.416Z,3.47
2023-05-07T16:35:26.918Z,5.53
2023-05-07T16:38:32.821Z,3.30
2023-05-07T16:41:34.354Z,4.57
2023-05-07T16:44:35.807Z,5.33
2023-05-07T16:47:37.935Z,2.13
2023-05-07T16:50:39.477Z,2.97
2023-05-07T16:53:40.913Z,4.77
2023-05-07T16:56:43.902Z,3.80
2023-05-07T16:59:45.449Z,2.80
2023-05-07T17:02:47.107Z,1.90
2023-05-07T17:05:48.707Z,5.53
2023-05-07T17:08:52.314Z,5.30
2023-05-07T17:11:54.245Z,5.37
2023-05-07T17:14:56.759Z,4.30
2023-05-07T17:17:58.332Z,3.33
2023-05-07T17:20:59.754Z,5.23
2023-05-07T17:24:02.325Z,4.13
2023-05-07T17:27:04.353Z,3.57
2023-05-07T17:30:06.932Z,2.93
2023-05-07T17:33:20.055Z,3.00
2023-05-07T17:36:23.219Z,7.20
2023-05-07T17:39:25.389Z,9.13
2023-05-07T17:42:26.879Z,3.53
2023-05-07T17:45:28.427Z,2.90
2023-05-07T17:48:31.254Z,4.17
2023-05-07T17:51:45.939Z,9.07
2023-05-07T17:54:54.115Z,8.03
2023-05-07T17:57:56.451Z,6.10
2023-05-07T18:00:57.885Z,4.07
2023-05-07T18:03:59.503Z,3.00
2023-05-07T18:07:01.105Z,4.70
2023-05-07T18:10:03.037Z,4.20
2023-05-07T18:13:04.492Z,4.67
2023-05-07T18:16:06.276Z,4.00
2023-05-07T18:19:09.104Z,4.37
2023-05-07T18:22:10.662Z,4.80
2023-05-07T18:25:12.291Z,4.20
2023-05-07T18:28:13.690Z,3.50
2023-05-07T18:31:15.503Z,2.80
2023-05-07T18:34:17.245Z,2.40
2023-05-07T18:37:18.759Z,2.90
2023-05-07T18:40:20.970Z,3.07
2023-05-07T18:43:23.246Z,3.07
2023-05-07T18:46:24.794Z,2.17
2023-05-07T18:49:26.349Z,3.63
2023-05-07T18:52:29.036Z,5.10
2023-05-07T18:55:31.417Z,4.57
2023-05-07T18:58:34.433Z,3.97
2023-05-07T19:01:36.021Z,6.63
2023-05-07T19:04:38.403Z,5.53
2023-05-07T19:07:40.384Z,5.53
2023-05-07T19:10:41.813Z,3.70
2023-05-07T19:13:43.374Z,6.70
2023-05-07T19:16:45.027Z,4.97
2023-05-07T19:19:48.943Z,6.40
2023-05-07T19:22:51.846Z,2.80
2023-05-07T19:25:53.274Z,3.80
2023-05-07T19:29:11.751Z,3.30
2023-05-07T19:32:16.122Z,3.50
2023-05-07T19:35:17.513Z,3.93
2023-05-07T19:38:18.922Z,3.67
2023-05-07T19:41:21.969Z,5.50
2023-05-07T19:44:23.406Z,2.63
2023-05-07T19:47:26.229Z,2.50
2023-05-07T19:50:27.793Z,9.37
2023-05-07T19:53:30.351Z,5.27
2023-05-07T19:56:31.791Z,3.93
2023-05-07T19:59:33.288Z,5.63
2023-05-07T20:02:35.040Z,3.73
2023-05-07T20:05:36.470Z,3.17
2023-05-07T20:08:38.435Z,2.23
2023-05-07T20:11:40.065Z,2.57
2023-05-07T20:14:41.456Z,3.00
2023-05-07T20:17:42.967Z,2.53
2023-05-07T20:20:45.232Z,3.50
2023-05-07T20:23:46.672Z,2.30
2023-05-07T20:26:48.131Z,3.20
2023-05-07T20:29:49.566Z,2.53
2023-05-07T20:32:51.102Z,5.33
2023-05-07T20:35:52.635Z,5.00
2023-05-07T20:38:54.129Z,4.17
2023-05-07T20:41:55.582Z,3.93
2023-05-07T20:44:57.144Z,4.07
2023-05-07T20:47:58.657Z,3.17
2023-05-07T20:51:01.632Z,5.40
2023-05-07T20:54:03.202Z,4.63
2023-05-07T20:57:04.573Z,6.37
2023-05-07T21:00:08.046Z,7.40
2023-05-07T21:03:10.005Z,7.03
2023-05-07T21:06:11.390Z,5.50
2023-05-07T21:09:12.850Z,5.80
2023-05-07T21:12:14.287Z,4.90
2023-05-07T21:15:15.741Z,6.60
2023-05-07T21:18:19.392Z,8.93
2023-05-07T21:21:20.933Z,6.47
2023-05-07T21:24:22.302Z,6.70
2023-05-07T21:27:23.712Z,8.67
2023-05-07T21:30:25.228Z,6.80
2023-05-07T21:33:26.618Z,8.23
2023-05-07T21:36:28.731Z,6.87
2023-05-07T21:39:30.187Z,6.63
2023-05-07T21:42:31.753Z,7.47
2023-05-07T21:45:33.134Z,5.37
2023-05-07T21:48:35.202Z,6.40
2023-05-07T21:51:36.597Z,6.80
2023-05-07T21:54:38.291Z,7.43
2023-05-07T21:57:41.900Z,8.07
2023-05-07T22:00:44.999Z,9.63
2023-05-07T22:03:46.609Z,7.03
2023-05-07T22:06:48.081Z,7.17
2023-05-07T22:09:49.468Z,10.97
2023-05-07T22:12:50.899Z,6.83
2023-05-07T22:15:57.312Z,7.00
2023-05-07T22:18:59.770Z,8.93
2023-05-07T22:22:01.166Z,6.70
2023-05-07T22:25:02.552Z,7.13
2023-05-07T22:28:04.107Z,8.20
2023-05-07T22:31:05.811Z,9.73
2023-05-07T22:34:07.210Z,8.47
2023-05-07T22:37:08.599Z,9.57
2023-05-07T22:40:10.640Z,8.53
2023-05-07T22:43:12.174Z,8.47
2023-05-07T22:46:13.677Z,9.93
2023-05-07T22:49:15.147Z,10.80
2023-05-07T22:52:16.968Z,8.33
2023-05-07T22:55:18.406Z,10.13
2023-05-07T22:58:20.251Z,8.60
2023-05-07T23:01:21.689Z,6.93
2023-05-07T23:04:23.186Z,5.33
2023-05-07T23:07:24.625Z,4.20
2023-05-07T23:10:26.011Z,7.23
2023-05-07T23:13:27.477Z,3.57
2023-05-07T23:16:29.174Z,2.80
2023-05-07T23:19:30.714Z,5.37
2023-05-07T23:22:32.157Z,2.77
2023-05-07T23:25:33.546Z,2.47
2023-05-07T23:28:35.065Z,2.87
2023-05-07T23:31:36.815Z,4.13
2023-05-07T23:34:38.241Z,2.37
2023-05-07T23:37:39.921Z,2.93
2023-05-07T23:40:41.393Z,2.23
2023-05-07T23:43:42.787Z,2.07
2023-05-07T23:46:44.698Z,2.97
2023-05-07T23:49:46.188Z,3.23
2023-05-07T23:52:47.570Z,4.00
2023-05-07T23:55:49.054Z,3.10
2023-05-07T23:58:50.608Z,2.70
